TimeEST,TemperatureF,Dew PointF,Humidity,Sea Level PressureIn,VisibilityMPH,Wind Direction,Wind SpeedMPH,Gust SpeedMPH,PrecipitationIn,Events,Conditions,WindDirDegrees,DateUTC
12:51 AM,30.2,23.0,75,30.50,10.0,North,4.6,-,N/A,,Clear,10,2012-11-15 05:51:00
1:51 AM,32.0,23.0,69,30.49,10.0,NNE,10.4,-,N/A,,Clear,20,2012-11-15 06:51:00
2:51 AM,30.0,23.0,75,30.49,10.0,North,8.1,-,N/A,,Clear,350,2012-11-15 07:51:00
3:51 AM,30.9,23.0,72,30.49,10.0,North,8.1,-,N/A,,Clear,10,2012-11-15 08:51:00
4:51 AM,30.9,23.0,72,30.48,10.0,North,10.4,-,N/A,,Clear,360,2012-11-15 09:51:00
5:51 AM,30.2,23.0,75,30.46,10.0,North,9.2,-,N/A,,Clear,360,2012-11-15 10:51:00
6:51 AM,30.0,23.0,75,30.48,10.0,North,8.1,-,N/A,,Clear,10,2012-11-15 11:51:00
7:51 AM,33.1,24.1,70,30.49,10.0,North,9.2,-,N/A,,Clear,360,2012-11-15 12:51:00
8:51 AM,36.0,26.1,67,30.48,10.0,North,15.0,-,N/A,,Partly Cloudy,10,2012-11-15 13:51:00
9:51 AM,37.9,27.0,65,30.47,10.0,North,10.4,-,N/A,,Partly Cloudy,10,2012-11-15 14:51:00
10:51 AM,39.9,28.0,63,30.44,10.0,North,10.4,-,N/A,,Partly Cloudy,350,2012-11-15 15:51:00
11:51 AM,42.1,28.0,58,30.41,10.0,Variable,6.9,-,N/A,,Partly Cloudy,0,2012-11-15 16:51:00
12:51 PM,44.1,28.0,53,30.38,10.0,Variable,3.5,-,N/A,,Partly Cloudy,0,2012-11-15 17:51:00
1:51 PM,43.0,27.0,53,30.36,10.0,North,11.5,-,N/A,,Clear,360,2012-11-15 18:51:00
2:51 PM,44.6,26.6,49,30.36,10.0,North,3.5,-,N/A,,Clear,360,2012-11-15 19:51:00
3:51 PM,39.9,25.0,55,30.36,10.0,North,8.1,-,N/A,,Clear,10,2012-11-15 20:51:00
4:51 PM,39.0,25.0,57,30.36,10.0,NNE,3.5,-,N/A,,Clear,30,2012-11-15 21:51:00
5:51 PM,37.0,26.1,65,30.36,10.0,NNE,4.6,-,N/A,,Clear,20,2012-11-15 22:51:00
6:51 PM,36.0,26.1,67,30.35,10.0,NNE,3.5,-,N/A,,Clear,20,2012-11-15 23:51:00
7:51 PM,35.1,26.1,70,30.35,10.0,NNW,5.8,-,N/A,,Clear,340,2012-11-16 00:51:00
8:51 PM,34.0,26.1,73,30.35,10.0,North,4.6,-,N/A,,Clear,350,2012-11-16 01:51:00
9:51 PM,33.1,26.1,75,30.34,10.0,North,4.6,-,N/A,,Clear,350,2012-11-16 02:51:00
10:51 PM,32.0,26.1,79,30.34,10.0,NNW,4.6,-,N/A,,Clear,330,2012-11-16 03:51:00
11:51 PM,32.0,26.1,79,30.33,10.0,North,4.6,-,N/A,,Clear,350,2012-11-16 04:51:00